Seatac, Washington
Current Conditions -  °F | °C
As of 5:23 PM on Thursday 27 Nov 2014 (Local Time) from KSEA Reporting Station
Light Rain Light Rain  
Wind Chill: 55°   Ceiling: 4200
Heat Index: 55°   Visibility: 10mi
Dew Point: 48°   Wind: 13mph
Humidity: 77%   Direction: 180°S
Pressure: 29.76"   Gusts: 22mph
Location:  47.45°N, 122.308°W
Report Text: KSEA 280123Z 18011G19KT 10SM -RA SCT028 BKN042 13/09 A2976 RMK AO2 RAB17 P0000
Loading
Personal Weather Stations






























Interactive Weather Map New forecast layout! Learn more

10-Day Weather Forecast

Advertisements
Track Severe Weather on mobile